sensor_id;sensor_type;location;lat;lon;timestamp;pressure;altitude;pressure_sealevel;temperature;humidity
71485;BME280;59300;52.074;4.758;2022-11-20T00:02:26;101439.00;;;-5.49;100.00
71485;BME280;59300;52.074;4.758;2022-11-20T00:05:27;101437.00;;;-5.55;100.00
71485;BME280;59300;52.074;4.758;2022-11-20T00:08:29;101436.59;;;-5.64;100.00
71485;BME280;59300;52.074;4.758;2022-11-20T00:11:32;101437.31;;;-5.66;100.00
71485;BME280;59300;52.074;4.758;2022-11-20T00:14:33;101440.41;;;-5.56;100.00
71485;BME280;59300;52.074;4.758;2022-11-20T00:17:35;101436.28;;;-5.52;100.00
71485;BME280;59300;52.074;4.758;2022-11-20T00:20:36;101446.44;;;-5.55;100.00
71485;BME280;59300;52.074;4.758;2022-11-20T00:23:38;101437.66;;;-5.59;100.00
71485;BME280;59300;52.074;4.758;2022-11-20T00:26:39;101428.72;;;-5.67;100.00
71485;BME280;59300;52.074;4.758;2022-11-20T00:29:42;101430.09;;;-5.56;100.00
71485;BME280;59300;52.074;4.758;2022-11-20T00:32:44;101430.91;;;-5.75;100.00
71485;BME280;59300;52.074;4.758;2022-11-20T00:35:45;101434.28;;;-5.94;100.00
71485;BME280;59300;52.074;4.758;2022-11-20T00:38:50;101430.28;;;-6.07;100.00
71485;BME280;59300;52.074;4.758;2022-11-20T00:41:52;101430.69;;;-6.15;100.00
71485;BME280;59300;52.074;4.758;2022-11-20T00:44:53;101426.72;;;-6.27;100.00
71485;BME280;59300;52.074;4.758;2022-11-20T00:47:54;101431.19;;;-6.23;100.00
71485;BME280;59300;52.074;4.758;2022-11-20T00:50:56;101423.13;;;-6.30;100.00
71485;BME280;59300;52.074;4.758;2022-11-20T00:53:58;101419.03;;;-6.43;100.00
71485;BME280;59300;52.074;4.758;2022-11-20T00:56:59;101425.09;;;-6.43;100.00
71485;BME280;59300;52.074;4.758;2022-11-20T01:00:01;101424.13;;;-6.45;100.00
71485;BME280;59300;52.074;4.758;2022-11-20T01:03:02;101408.78;;;-6.43;100.00
71485;BME280;59300;52.074;4.758;2022-11-20T01:06:07;101401.69;;;-6.31;100.00
71485;BME280;59300;52.074;4.758;2022-11-20T01:09:13;101400.47;;;-6.21;100.00
71485;BME280;59300;52.074;4.758;2022-11-20T01:12:15;101408.91;;;-6.24;100.00
71485;BME280;59300;52.074;4.758;2022-11-20T01:15:16;101396.72;;;-6.44;100.00
71485;BME280;59300;52.074;4.758;2022-11-20T01:18:18;101400.78;;;-6.50;100.00
71485;BME280;59300;52.074;4.758;2022-11-20T01:21:22;101404.63;;;-6.58;100.00
71485;BME280;59300;52.074;4.758;2022-11-20T01:24:24;101407.03;;;-6.61;100.00
71485;BME280;59300;52.074;4.758;2022-11-20T01:27:26;101408.31;;;-6.69;100.00
71485;BME280;59300;52.074;4.758;2022-11-20T01:30:28;101406.50;;;-6.72;100.00
71485;BME280;59300;52.074;4.758;2022-11-20T01:33:29;101400.63;;;-6.69;100.00
71485;BME280;59300;52.074;4.758;2022-11-20T01:36:32;101398.63;;;-6.75;100.00
71485;BME280;59300;52.074;4.758;2022-11-20T01:39:34;101395.81;;;-6.63;100.00
71485;BME280;59300;52.074;4.758;2022-11-20T01:42:35;101392.75;;;-6.56;100.00
71485;BME280;59300;52.074;4.758;2022-11-20T01:45:56;101380.22;;;-6.50;100.00
71485;BME280;59300;52.074;4.758;2022-11-20T01:49:04;101382.16;;;-6.09;100.00
71485;BME280;59300;52.074;4.758;2022-11-20T01:52:15;101380.75;;;-5.84;100.00
71485;BME280;59300;52.074;4.758;2022-11-20T01:55:24;101377.25;;;-5.87;100.00
71485;BME280;59300;52.074;4.758;2022-11-20T01:58:30;101388.66;;;-5.99;100.00
71485;BME280;59300;52.074;4.758;2022-11-20T02:01:33;101396.66;;;-6.11;100.00
71485;BME280;59300;52.074;4.758;2022-11-20T02:04:35;101403.28;;;-6.33;100.00
71485;BME280;59300;52.074;4.758;2022-11-20T02:07:37;101403.91;;;-6.55;100.00
71485;BME280;59300;52.074;4.758;2022-11-20T02:10:39;101401.66;;;-6.66;100.00
71485;BME280;59300;52.074;4.758;2022-11-20T02:13:41;101391.81;;;-6.40;100.00
71485;BME280;59300;52.074;4.758;2022-11-20T02:16:47;101392.50;;;-6.44;100.00
71485;BME280;59300;52.074;4.758;2022-11-20T02:19:49;101407.00;;;-6.44;100.00
71485;BME280;59300;52.074;4.758;2022-11-20T02:22:54;101403.84;;;-6.39;100.00
71485;BME280;59300;52.074;4.758;2022-11-20T02:26:01;101392.03;;;-6.35;100.00
71485;BME280;59300;52.074;4.758;2022-11-20T02:29:04;101396.56;;;-6.48;100.00
71485;BME280;59300;52.074;4.758;2022-11-20T02:32:05;101398.03;;;-6.53;100.00
71485;BME280;59300;52.074;4.758;2022-11-20T02:38:21;101403.13;;;-6.87;100.00
71485;BME280;59300;52.074;4.758;2022-11-20T02:41:30;101403.28;;;-7.01;100.00
71485;BME280;59300;52.074;4.758;2022-11-20T02:44:32;101388.44;;;-7.06;100.00
71485;BME280;59300;52.074;4.758;2022-11-20T02:47:34;101390.06;;;-7.08;100.00
71485;BME280;59300;52.074;4.758;2022-11-20T02:50:39;101381.38;;;-7.11;100.00
71485;BME280;59300;52.074;4.758;2022-11-20T02:53:40;101377.38;;;-7.05;100.00
71485;BME280;59300;52.074;4.758;2022-11-20T02:56:42;101382.53;;;-7.05;100.00
71485;BME280;59300;52.074;4.758;2022-11-20T02:59:44;101375.84;;;-7.02;100.00
71485;BME280;59300;52.074;4.758;2022-11-20T03:02:45;101378.81;;;-6.94;100.00
71485;BME280;59300;52.074;4.758;2022-11-20T03:05:47;101377.22;;;-6.92;100.00
71485;BME280;59300;52.074;4.758;2022-11-20T03:08:48;101370.34;;;-6.93;100.00
71485;BME280;59300;52.074;4.758;2022-11-20T03:11:49;101367.94;;;-7.06;100.00
71485;BME280;59300;52.074;4.758;2022-11-20T03:14:51;101361.66;;;-7.12;100.00
71485;BME280;59300;52.074;4.758;2022-11-20T03:17:54;101356.28;;;-7.16;100.00
71485;BME280;59300;52.074;4.758;2022-11-20T03:20:59;101344.19;;;-7.19;100.00
71485;BME280;59300;52.074;4.758;2022-11-20T03:24:01;101336.00;;;-7.12;100.00
71485;BME280;59300;52.074;4.758;2022-11-20T03:27:03;101339.88;;;-7.20;100.00
71485;BME280;59300;52.074;4.758;2022-11-20T03:30:05;101335.88;;;-7.15;100.00
71485;BME280;59300;52.074;4.758;2022-11-20T03:33:07;101335.38;;;-7.07;100.00
71485;BME280;59300;52.074;4.758;2022-11-20T03:36:11;101324.66;;;-7.00;100.00
71485;BME280;59300;52.074;4.758;2022-11-20T03:39:12;101317.50;;;-7.06;100.00
71485;BME280;59300;52.074;4.758;2022-11-20T03:42:14;101321.75;;;-7.06;100.00
71485;BME280;59300;52.074;4.758;2022-11-20T03:45:17;101318.22;;;-7.08;100.00
71485;BME280;59300;52.074;4.758;2022-11-20T03:48:19;101317.34;;;-7.09;100.00
71485;BME280;59300;52.074;4.758;2022-11-20T03:51:22;101329.38;;;-7.08;100.00
71485;BME280;59300;52.074;4.758;2022-11-20T03:54:24;101309.44;;;-7.14;100.00
71485;BME280;59300;52.074;4.758;2022-11-20T03:57:25;101301.38;;;-7.03;100.00
71485;BME280;59300;52.074;4.758;2022-11-20T04:00:27;101301.50;;;-6.84;100.00
71485;BME280;59300;52.074;4.758;2022-11-20T04:03:28;101297.75;;;-6.90;100.00
71485;BME280;59300;52.074;4.758;2022-11-20T04:06:33;101302.59;;;-6.97;100.00
71485;BME280;59300;52.074;4.758;2022-11-20T04:09:35;101304.75;;;-7.04;100.00
71485;BME280;59300;52.074;4.758;2022-11-20T04:12:37;101315.19;;;-7.18;100.00
71485;BME280;59300;52.074;4.758;2022-11-20T04:15:39;101319.19;;;-7.23;100.00
71485;BME280;59300;52.074;4.758;2022-11-20T04:18:40;101312.63;;;-7.18;100.00
71485;BME280;59300;52.074;4.758;2022-11-20T04:21:43;101300.03;;;-7.13;100.00
71485;BME280;59300;52.074;4.758;2022-11-20T04:24:45;101283.94;;;-6.92;100.00
71485;BME280;59300;52.074;4.758;2022-11-20T04:27:46;101282.56;;;-6.86;100.00
71485;BME280;59300;52.074;4.758;2022-11-20T04:30:47;101273.28;;;-6.84;100.00
71485;BME280;59300;52.074;4.758;2022-11-20T04:33:49;101274.97;;;-6.84;100.00
71485;BME280;59300;52.074;4.758;2022-11-20T04:36:51;101261.34;;;-6.83;100.00
71485;BME280;59300;52.074;4.758;2022-11-20T04:39:52;101267.78;;;-6.73;100.00
71485;BME280;59300;52.074;4.758;2022-11-20T04:42:54;101274.84;;;-6.69;100.00
71485;BME280;59300;52.074;4.758;2022-11-20T04:45:57;101273.00;;;-6.72;100.00
71485;BME280;59300;52.074;4.758;2022-11-20T04:48:59;101265.94;;;-6.76;100.00
71485;BME280;59300;52.074;4.758;2022-11-20T04:52:01;101261.84;;;-6.72;100.00
71485;BME280;59300;52.074;4.758;2022-11-20T04:55:02;101257.00;;;-6.84;100.00
71485;BME280;59300;52.074;4.758;2022-11-20T04:58:04;101263.59;;;-6.89;100.00
71485;BME280;59300;52.074;4.758;2022-11-20T05:01:09;101261.13;;;-6.88;100.00
71485;BME280;59300;52.074;4.758;2022-11-20T05:04:11;101266.81;;;-6.93;100.00
71485;BME280;59300;52.074;4.758;2022-11-20T05:07:12;101267.63;;;-6.95;100.00
71485;BME280;59300;52.074;4.758;2022-11-20T05:10:14;101259.75;;;-6.98;100.00
71485;BME280;59300;52.074;4.758;2022-11-20T05:13:16;101271.25;;;-7.07;100.00
71485;BME280;59300;52.074;4.758;2022-11-20T05:16:22;101269.81;;;-7.19;100.00
71485;BME280;59300;52.074;4.758;2022-11-20T05:19:24;101270.28;;;-7.10;100.00
71485;BME280;59300;52.074;4.758;2022-11-20T05:22:25;101266.91;;;-7.08;100.00
71485;BME280;59300;52.074;4.758;2022-11-20T05:25:27;101268.59;;;-7.09;100.00
71485;BME280;59300;52.074;4.758;2022-11-20T05:28:29;101259.06;;;-6.77;100.00
71485;BME280;59300;52.074;4.758;2022-11-20T05:31:32;101259.66;;;-6.65;100.00
71485;BME280;59300;52.074;4.758;2022-11-20T05:34:33;101270.69;;;-6.31;100.00
71485;BME280;59300;52.074;4.758;2022-11-20T05:37:35;101275.44;;;-6.21;100.00
71485;BME280;59300;52.074;4.758;2022-11-20T05:40:36;101280.94;;;-6.31;100.00
71485;BME280;59300;52.074;4.758;2022-11-20T05:43:39;101278.44;;;-6.48;100.00
71485;BME280;59300;52.074;4.758;2022-11-20T05:46:41;101274.63;;;-6.56;100.00
71485;BME280;59300;52.074;4.758;2022-11-20T05:49:43;101269.44;;;-6.57;100.00
71485;BME280;59300;52.074;4.758;2022-11-20T05:52:44;101271.03;;;-6.59;100.00
71485;BME280;59300;52.074;4.758;2022-11-20T05:55:46;101270.88;;;-6.63;100.00
71485;BME280;59300;52.074;4.758;2022-11-20T05:58:48;101263.34;;;-6.59;100.00
71485;BME280;59300;52.074;4.758;2022-11-20T06:01:49;101254.25;;;-6.53;100.00
71485;BME280;59300;52.074;4.758;2022-11-20T06:04:51;101249.53;;;-6.43;100.00
71485;BME280;59300;52.074;4.758;2022-11-20T06:07:52;101262.16;;;-6.12;100.00
71485;BME280;59300;52.074;4.758;2022-11-20T06:10:54;101262.38;;;-5.88;100.00
71485;BME280;59300;52.074;4.758;2022-11-20T06:13:55;101259.41;;;-5.77;100.00
71485;BME280;59300;52.074;4.758;2022-11-20T06:16:57;101249.34;;;-5.73;100.00
71485;BME280;59300;52.074;4.758;2022-11-20T06:19:58;101228.75;;;-5.73;100.00
71485;BME280;59300;52.074;4.758;2022-11-20T06:23:00;101221.78;;;-5.56;100.00
71485;BME280;59300;52.074;4.758;2022-11-20T06:26:06;101222.88;;;-5.50;100.00
71485;BME280;59300;52.074;4.758;2022-11-20T06:29:08;101222.47;;;-5.40;100.00
71485;BME280;59300;52.074;4.758;2022-11-20T06:32:10;101226.50;;;-5.45;100.00
71485;BME280;59300;52.074;4.758;2022-11-20T06:35:11;101218.81;;;-5.45;100.00
71485;BME280;59300;52.074;4.758;2022-11-20T06:38:13;101213.75;;;-5.44;100.00
71485;BME280;59300;52.074;4.758;2022-11-20T06:41:17;101219.28;;;-5.54;100.00
71485;BME280;59300;52.074;4.758;2022-11-20T06:44:20;101221.13;;;-5.51;100.00
71485;BME280;59300;52.074;4.758;2022-11-20T06:47:21;101217.59;;;-5.53;100.00
71485;BME280;59300;52.074;4.758;2022-11-20T06:50:23;101213.13;;;-5.58;100.00
71485;BME280;59300;52.074;4.758;2022-11-20T06:53:24;101215.28;;;-5.67;100.00
71485;BME280;59300;52.074;4.758;2022-11-20T06:56:26;101217.06;;;-5.66;100.00
71485;BME280;59300;52.074;4.758;2022-11-20T06:59:27;101211.78;;;-5.69;100.00
71485;BME280;59300;52.074;4.758;2022-11-20T07:02:29;101212.38;;;-5.75;100.00
71485;BME280;59300;52.074;4.758;2022-11-20T07:05:31;101205.16;;;-5.64;100.00
71485;BME280;59300;52.074;4.758;2022-11-20T07:08:33;101198.78;;;-5.52;100.00
71485;BME280;59300;52.074;4.758;2022-11-20T07:11:35;101202.50;;;-5.46;100.00
71485;BME280;59300;52.074;4.758;2022-11-20T07:14:36;101205.59;;;-5.33;100.00
71485;BME280;59300;52.074;4.758;2022-11-20T07:17:37;101216.75;;;-5.33;100.00
71485;BME280;59300;52.074;4.758;2022-11-20T07:20:39;101211.06;;;-5.26;100.00
71485;BME280;59300;52.074;4.758;2022-11-20T07:23:40;101212.94;;;-5.21;100.00
71485;BME280;59300;52.074;4.758;2022-11-20T07:26:42;101211.47;;;-5.16;100.00
71485;BME280;59300;52.074;4.758;2022-11-20T07:29:43;101211.78;;;-5.09;100.00
71485;BME280;59300;52.074;4.758;2022-11-20T07:32:52;101213.88;;;-5.00;100.00
71485;BME280;59300;52.074;4.758;2022-11-20T07:35:54;101216.94;;;-4.87;100.00
71485;BME280;59300;52.074;4.758;2022-11-20T07:38:55;101208.19;;;-4.70;100.00
71485;BME280;59300;52.074;4.758;2022-11-20T07:41:56;101207.72;;;-4.59;100.00
71485;BME280;59300;52.074;4.758;2022-11-20T07:44:58;101211.63;;;-4.48;100.00
71485;BME280;59300;52.074;4.758;2022-11-20T07:47:59;101206.66;;;-4.43;100.00
71485;BME280;59300;52.074;4.758;2022-11-20T07:51:01;101217.28;;;-4.36;100.00
71485;BME280;59300;52.074;4.758;2022-11-20T07:54:03;101204.66;;;-4.28;100.00
71485;BME280;59300;52.074;4.758;2022-11-20T07:57:04;101217.03;;;-4.19;100.00
71485;BME280;59300;52.074;4.758;2022-11-20T08:00:07;101213.16;;;-4.08;100.00
71485;BME280;59300;52.074;4.758;2022-11-20T08:03:15;101210.94;;;-3.98;100.00
71485;BME280;59300;52.074;4.758;2022-11-20T08:06:25;101212.78;;;-3.94;100.00
71485;BME280;59300;52.074;4.758;2022-11-20T08:09:26;101214.63;;;-3.92;100.00
71485;BME280;59300;52.074;4.758;2022-11-20T08:12:28;101226.91;;;-3.84;100.00
71485;BME280;59300;52.074;4.758;2022-11-20T08:15:31;101221.09;;;-3.79;100.00
71485;BME280;59300;52.074;4.758;2022-11-20T08:18:33;101224.81;;;-3.71;100.00
71485;BME280;59300;52.074;4.758;2022-11-20T08:21:35;101218.09;;;-3.67;100.00
71485;BME280;59300;52.074;4.758;2022-11-20T08:24:38;101217.38;;;-3.63;100.00
71485;BME280;59300;52.074;4.758;2022-11-20T08:27:40;101210.69;;;-3.58;100.00
71485;BME280;59300;52.074;4.758;2022-11-20T08:30:41;101201.56;;;-3.48;100.00
71485;BME280;59300;52.074;4.758;2022-11-20T08:33:43;101198.38;;;-3.41;100.00
71485;BME280;59300;52.074;4.758;2022-11-20T08:36:44;101190.13;;;-3.30;100.00
71485;BME280;59300;52.074;4.758;2022-11-20T08:39:46;101191.31;;;-3.20;100.00
71485;BME280;59300;52.074;4.758;2022-11-20T08:42:49;101200.16;;;-3.14;100.00
71485;BME280;59300;52.074;4.758;2022-11-20T08:45:51;101199.44;;;-3.10;100.00
71485;BME280;59300;52.074;4.758;2022-11-20T08:48:53;101184.13;;;-3.03;100.00
71485;BME280;59300;52.074;4.758;2022-11-20T08:51:54;101186.19;;;-2.93;100.00
71485;BME280;59300;52.074;4.758;2022-11-20T08:54:56;101192.25;;;-2.92;100.00
71485;BME280;59300;52.074;4.758;2022-11-20T08:57:57;101194.19;;;-2.85;100.00
71485;BME280;59300;52.074;4.758;2022-11-20T09:00:59;101195.16;;;-2.82;100.00
71485;BME280;59300;52.074;4.758;2022-11-20T09:04:00;101195.56;;;-2.69;100.00
71485;BME280;59300;52.074;4.758;2022-11-20T09:07:01;101203.56;;;-2.62;100.00
71485;BME280;59300;52.074;4.758;2022-11-20T09:10:03;101190.03;;;-2.53;100.00
71485;BME280;59300;52.074;4.758;2022-11-20T09:13:26;101181.75;;;-2.42;100.00
71485;BME280;59300;52.074;4.758;2022-11-20T09:16:27;101181.00;;;-2.38;100.00
71485;BME280;59300;52.074;4.758;2022-11-20T09:19:29;101177.19;;;-2.22;100.00
71485;BME280;59300;52.074;4.758;2022-11-20T09:22:39;101164.75;;;-2.05;100.00
71485;BME280;59300;52.074;4.758;2022-11-20T09:25:41;101152.81;;;-2.00;100.00
71485;BME280;59300;52.074;4.758;2022-11-20T09:28:43;101149.84;;;-1.83;100.00
71485;BME280;59300;52.074;4.758;2022-11-20T09:31:44;101149.38;;;-1.68;100.00
71485;BME280;59300;52.074;4.758;2022-11-20T09:34:46;101147.72;;;-1.66;100.00
71485;BME280;59300;52.074;4.758;2022-11-20T09:37:49;101138.59;;;-1.84;100.00
71485;BME280;59300;52.074;4.758;2022-11-20T09:41:00;101143.88;;;-1.81;100.00
71485;BME280;59300;52.074;4.758;2022-11-20T09:54:35;101123.50;;;-1.35;100.00
71485;BME280;59300;52.074;4.758;2022-11-20T09:57:45;101110.03;;;-1.21;100.00
71485;BME280;59300;52.074;4.758;2022-11-20T10:00:48;101106.81;;;-1.11;100.00
71485;BME280;59300;52.074;4.758;2022-11-20T10:04:04;101112.88;;;-1.11;100.00
71485;BME280;59300;52.074;4.758;2022-11-20T10:07:17;101091.00;;;-1.22;100.00
71485;BME280;59300;52.074;4.758;2022-11-20T10:10:44;101096.47;;;-1.11;100.00
71485;BME280;59300;52.074;4.758;2022-11-20T10:14:12;101095.19;;;-0.90;100.00
71485;BME280;59300;52.074;4.758;2022-11-20T10:20:52;101068.72;;;-0.79;100.00
71485;BME280;59300;52.074;4.758;2022-11-20T10:30:20;101046.09;;;-0.43;100.00
71485;BME280;59300;52.074;4.758;2022-11-20T10:33:23;101034.91;;;-0.42;100.00
71485;BME280;59300;52.074;4.758;2022-11-20T10:36:44;101024.38;;;-0.50;100.00
71485;BME280;59300;52.074;4.758;2022-11-20T10:39:54;101030.75;;;-0.34;100.00
71485;BME280;59300;52.074;4.758;2022-11-20T10:46:12;101022.47;;;-0.58;100.00
71485;BME280;59300;52.074;4.758;2022-11-20T10:49:18;101011.31;;;-0.54;100.00
71485;BME280;59300;52.074;4.758;2022-11-20T10:52:25;101003.81;;;-0.40;100.00
71485;BME280;59300;52.074;4.758;2022-11-20T10:55:30;100979.53;;;-0.44;100.00
71485;BME280;59300;52.074;4.758;2022-11-20T10:59:00;100972.88;;;-0.29;100.00
71485;BME280;59300;52.074;4.758;2022-11-20T11:02:19;100971.59;;;-0.06;100.00
71485;BME280;59300;52.074;4.758;2022-11-20T11:09:04;100964.19;;;0.16;100.00
71485;BME280;59300;52.074;4.758;2022-11-20T11:12:10;100958.97;;;0.14;100.00
71485;BME280;59300;52.074;4.758;2022-11-20T11:15:24;100952.97;;;0.17;100.00
71485;BME280;59300;52.074;4.758;2022-11-20T11:18:28;100959.16;;;0.25;100.00
71485;BME280;59300;52.074;4.758;2022-11-20T11:21:30;100966.00;;;0.22;100.00
71485;BME280;59300;52.074;4.758;2022-11-20T11:24:31;100959.78;;;0.12;100.00
71485;BME280;59300;52.074;4.758;2022-11-20T11:27:49;100950.31;;;0.14;100.00
71485;BME280;59300;52.074;4.758;2022-11-20T11:30:51;100940.13;;;0.25;100.00
71485;BME280;59300;52.074;4.758;2022-11-20T11:34:13;100926.25;;;0.24;100.00
71485;BME280;59300;52.074;4.758;2022-11-20T11:37:20;100902.16;;;0.35;100.00
71485;BME280;59300;52.074;4.758;2022-11-20T11:40:22;100907.41;;;0.38;100.00
71485;BME280;59300;52.074;4.758;2022-11-20T11:43:27;100895.22;;;0.34;100.00
71485;BME280;59300;52.074;4.758;2022-11-20T11:46:36;100886.88;;;0.53;100.00
71485;BME280;59300;52.074;4.758;2022-11-20T11:49:38;100874.91;;;0.66;100.00
71485;BME280;59300;52.074;4.758;2022-11-20T11:53:13;100864.41;;;0.58;100.00
71485;BME280;59300;52.074;4.758;2022-11-20T11:56:16;100855.72;;;0.53;100.00
71485;BME280;59300;52.074;4.758;2022-11-20T11:59:51;100854.81;;;0.53;100.00
71485;BME280;59300;52.074;4.758;2022-11-20T12:03:13;100840.19;;;0.59;100.00
71485;BME280;59300;52.074;4.758;2022-11-20T12:06:17;100824.53;;;0.53;100.00
71485;BME280;59300;52.074;4.758;2022-11-20T12:09:21;100810.81;;;0.64;100.00
71485;BME280;59300;52.074;4.758;2022-11-20T12:12:35;100802.22;;;0.71;100.00
71485;BME280;59300;52.074;4.758;2022-11-20T12:15:41;100803.91;;;0.66;100.00
71485;BME280;59300;52.074;4.758;2022-11-20T12:18:48;100806.41;;;0.58;100.00
71485;BME280;59300;52.074;4.758;2022-11-20T12:22:21;100805.53;;;0.56;100.00
71485;BME280;59300;52.074;4.758;2022-11-20T12:25:30;100809.88;;;0.58;100.00
71485;BME280;59300;52.074;4.758;2022-11-20T12:42:21;100797.16;;;0.80;100.00
71485;BME280;59300;52.074;4.758;2022-11-20T12:45:49;100800.66;;;0.85;100.00
71485;BME280;59300;52.074;4.758;2022-11-20T12:48:59;100794.53;;;0.79;100.00
71485;BME280;59300;52.074;4.758;2022-11-20T13:02:00;100765.19;;;0.87;100.00
71485;BME280;59300;52.074;4.758;2022-11-20T13:08:29;100740.91;;;0.84;100.00
71485;BME280;59300;52.074;4.758;2022-11-20T13:14:52;100740.00;;;0.83;100.00
71485;BME280;59300;52.074;4.758;2022-11-20T13:18:01;100731.38;;;0.84;100.00
71485;BME280;59300;52.074;4.758;2022-11-20T13:21:17;100717.56;;;0.90;100.00
71485;BME280;59300;52.074;4.758;2022-11-20T13:27:23;100698.56;;;0.94;100.00
71485;BME280;59300;52.074;4.758;2022-11-20T13:30:29;100704.56;;;0.88;100.00
71485;BME280;59300;52.074;4.758;2022-11-20T13:33:36;100710.66;;;0.90;100.00
71485;BME280;59300;52.074;4.758;2022-11-20T13:36:49;100688.16;;;0.93;100.00
71485;BME280;59300;52.074;4.758;2022-11-20T13:39:51;100693.41;;;0.97;100.00
71485;BME280;59300;52.074;4.758;2022-11-20T13:46:08;100674.34;;;0.98;100.00
71485;BME280;59300;52.074;4.758;2022-11-20T13:49:29;100673.50;;;0.99;100.00
71485;BME280;59300;52.074;4.758;2022-11-20T13:52:56;100667.44;;;1.02;100.00
71485;BME280;59300;52.074;4.758;2022-11-20T13:56:24;100657.91;;;1.01;100.00
71485;BME280;59300;52.074;4.758;2022-11-20T13:59:53;100663.97;;;1.00;100.00
71485;BME280;59300;52.074;4.758;2022-11-20T14:03:12;100650.94;;;0.97;100.00
71485;BME280;59300;52.074;4.758;2022-11-20T14:06:28;100642.31;;;1.01;100.00
71485;BME280;59300;52.074;4.758;2022-11-20T14:09:32;100646.63;;;0.99;100.00
71485;BME280;59300;52.074;4.758;2022-11-20T14:12:33;100650.09;;;1.01;100.00
71485;BME280;59300;52.074;4.758;2022-11-20T14:15:35;100651.84;;;1.02;100.00
71485;BME280;59300;52.074;4.758;2022-11-20T14:18:43;100639.72;;;1.01;100.00
71485;BME280;59300;52.074;4.758;2022-11-20T14:22:32;100631.88;;;0.98;100.00
71485;BME280;59300;52.074;4.758;2022-11-20T14:28:25;100610.25;;;0.99;100.00
71485;BME280;59300;52.074;4.758;2022-11-20T14:31:27;100595.50;;;0.98;100.00
71485;BME280;59300;52.074;4.758;2022-11-20T14:34:31;100584.25;;;0.99;100.00
71485;BME280;59300;52.074;4.758;2022-11-20T14:37:37;100566.94;;;0.99;100.00
71485;BME280;59300;52.074;4.758;2022-11-20T14:40:39;100559.16;;;1.01;100.00
71485;BME280;59300;52.074;4.758;2022-11-20T14:43:45;100554.84;;;1.03;100.00
71485;BME280;59300;52.074;4.758;2022-11-20T14:46:47;100553.97;;;1.04;100.00
71485;BME280;59300;52.074;4.758;2022-11-20T14:49:50;100548.75;;;1.02;100.00
71485;BME280;59300;52.074;4.758;2022-11-20T14:53:00;100541.81;;;1.01;100.00
71485;BME280;59300;52.074;4.758;2022-11-20T14:56:02;100545.34;;;1.05;100.00
71485;BME280;59300;52.074;4.758;2022-11-20T14:59:04;100543.63;;;1.09;100.00
71485;BME280;59300;52.074;4.758;2022-11-20T15:02:09;100534.09;;;1.11;100.00
71485;BME280;59300;52.074;4.758;2022-11-20T15:05:11;100521.06;;;1.04;100.00
71485;BME280;59300;52.074;4.758;2022-11-20T15:08:13;100511.53;;;1.05;100.00
71485;BME280;59300;52.074;4.758;2022-11-20T15:11:22;100498.56;;;1.05;100.00
71485;BME280;59300;52.074;4.758;2022-11-20T15:14:28;100491.66;;;1.15;100.00
71485;BME280;59300;52.074;4.758;2022-11-20T15:17:31;100484.75;;;1.15;100.00
71485;BME280;59300;52.074;4.758;2022-11-20T15:20:33;100474.34;;;1.20;100.00
71485;BME280;59300;52.074;4.758;2022-11-20T15:23:36;100464.81;;;1.20;100.00
71485;BME280;59300;52.074;4.758;2022-11-20T15:26:38;100465.69;;;1.18;100.00
71485;BME280;59300;52.074;4.758;2022-11-20T15:29:41;100457.00;;;1.20;100.00
71485;BME280;59300;52.074;4.758;2022-11-20T15:32:43;100452.69;;;1.22;100.00
71485;BME280;59300;52.074;4.758;2022-11-20T15:35:45;100457.91;;;1.26;100.00
71485;BME280;59300;52.074;4.758;2022-11-20T15:38:47;100454.47;;;1.33;100.00
71485;BME280;59300;52.074;4.758;2022-11-20T15:41:48;100449.31;;;1.39;100.00
71485;BME280;59300;52.074;4.758;2022-11-20T15:44:50;100441.50;;;1.37;100.00
71485;BME280;59300;52.074;4.758;2022-11-20T15:47:51;100442.34;;;1.35;100.00
71485;BME280;59300;52.074;4.758;2022-11-20T15:54:14;100427.66;;;1.43;100.00
71485;BME280;59300;52.074;4.758;2022-11-20T15:57:16;100416.38;;;1.47;100.00
71485;BME280;59300;52.074;4.758;2022-11-20T16:00:17;100409.47;;;1.51;100.00
71485;BME280;59300;52.074;4.758;2022-11-20T16:03:24;100411.19;;;1.60;100.00
71485;BME280;59300;52.074;4.758;2022-11-20T16:06:25;100406.00;;;1.72;100.00
71485;BME280;59300;52.074;4.758;2022-11-20T16:09:27;100412.97;;;1.72;100.00
71485;BME280;59300;52.074;4.758;2022-11-20T16:12:28;100410.38;;;1.75;100.00
71485;BME280;59300;52.074;4.758;2022-11-20T16:15:30;100412.97;;;1.75;100.00
71485;BME280;59300;52.074;4.758;2022-11-20T16:18:32;100412.09;;;1.74;100.00
71485;BME280;59300;52.074;4.758;2022-11-20T16:21:34;100416.47;;;1.81;100.00
71485;BME280;59300;52.074;4.758;2022-11-20T16:24:35;100419.91;;;1.80;100.00
71485;BME280;59300;52.074;4.758;2022-11-20T16:27:36;100415.59;;;1.82;100.00
71485;BME280;59300;52.074;4.758;2022-11-20T16:30:38;100414.69;;;1.77;100.00
71485;BME280;59300;52.074;4.758;2022-11-20T16:33:41;100416.44;;;1.84;100.00
71485;BME280;59300;52.074;4.758;2022-11-20T16:36:43;100421.66;;;1.81;100.00
71485;BME280;59300;52.074;4.758;2022-11-20T16:39:45;100424.22;;;1.77;100.00
71485;BME280;59300;52.074;4.758;2022-11-20T16:42:46;100426.84;;;1.78;100.00
71485;BME280;59300;52.074;4.758;2022-11-20T16:45:47;100421.66;;;1.91;100.00
71485;BME280;59300;52.074;4.758;2022-11-20T16:49:00;100425.97;;;1.90;100.00
71485;BME280;59300;52.074;4.758;2022-11-20T16:52:02;100424.25;;;1.97;100.00
71485;BME280;59300;52.074;4.758;2022-11-20T16:55:04;100417.31;;;1.94;100.00
71485;BME280;59300;52.074;4.758;2022-11-20T16:58:05;100409.50;;;1.90;100.00
71485;BME280;59300;52.074;4.758;2022-11-20T17:01:09;100405.16;;;1.78;100.00
71485;BME280;59300;52.074;4.758;2022-11-20T17:04:11;100406.03;;;1.75;100.00
71485;BME280;59300;52.074;4.758;2022-11-20T17:07:12;100414.69;;;1.65;100.00
71485;BME280;59300;52.074;4.758;2022-11-20T17:10:14;100423.31;;;1.58;100.00